sensor_id;sensor_type;location;lat;lon;timestamp;P1;durP1;ratioP1;P2;durP2;ratioP2
43696;SDS011;29301;47.620;19.560;2023-04-08T00:01:08;1.20;;;0.80;;
43696;SDS011;29301;47.620;19.560;2023-04-08T00:03:34;1.20;;;0.80;;
43696;SDS011;29301;47.620;19.560;2023-04-08T00:06:00;1.20;;;0.80;;
43696;SDS011;29301;47.620;19.560;2023-04-08T00:08:27;1.20;;;0.80;;
43696;SDS011;29301;47.620;19.560;2023-04-08T00:10:52;1.10;;;0.80;;
43696;SDS011;29301;47.620;19.560;2023-04-08T00:13:18;1.20;;;0.80;;
43696;SDS011;29301;47.620;19.560;2023-04-08T00:15:44;1.20;;;0.80;;
43696;SDS011;29301;47.620;19.560;2023-04-08T00:18:10;1.30;;;0.90;;
43696;SDS011;29301;47.620;19.560;2023-04-08T00:20:36;1.20;;;0.80;;
43696;SDS011;29301;47.620;19.560;2023-04-08T00:23:01;1.20;;;0.90;;
43696;SDS011;29301;47.620;19.560;2023-04-08T00:25:27;1.20;;;0.80;;
43696;SDS011;29301;47.620;19.560;2023-04-08T00:27:53;1.20;;;0.80;;
43696;SDS011;29301;47.620;19.560;2023-04-08T00:30:18;1.17;;;0.80;;
43696;SDS011;29301;47.620;19.560;2023-04-08T00:32:45;1.20;;;0.80;;
43696;SDS011;29301;47.620;19.560;2023-04-08T00:35:11;1.20;;;0.90;;
43696;SDS011;29301;47.620;19.560;2023-04-08T00:37:37;1.20;;;0.80;;
43696;SDS011;29301;47.620;19.560;2023-04-08T00:40:02;1.25;;;0.90;;
43696;SDS011;29301;47.620;19.560;2023-04-08T00:42:29;1.20;;;0.80;;
43696;SDS011;29301;47.620;19.560;2023-04-08T00:44:55;1.20;;;0.80;;
43696;SDS011;29301;47.620;19.560;2023-04-08T00:47:21;1.20;;;0.85;;
43696;SDS011;29301;47.620;19.560;2023-04-08T00:49:46;1.23;;;0.82;;
43696;SDS011;29301;47.620;19.560;2023-04-08T00:52:12;1.30;;;0.90;;
43696;SDS011;29301;47.620;19.560;2023-04-08T00:54:38;1.30;;;0.90;;
43696;SDS011;29301;47.620;19.560;2023-04-08T00:57:04;1.20;;;0.80;;
43696;SDS011;29301;47.620;19.560;2023-04-08T00:59:30;1.20;;;0.80;;
43696;SDS011;29301;47.620;19.560;2023-04-08T01:09:50;1.20;;;0.80;;
43696;SDS011;29301;47.620;19.560;2023-04-08T01:12:20;1.30;;;0.80;;
43696;SDS011;29301;47.620;19.560;2023-04-08T01:15:02;1.20;;;0.80;;
43696;SDS011;29301;47.620;19.560;2023-04-08T01:17:30;1.20;;;0.90;;
43696;SDS011;29301;47.620;19.560;2023-04-08T01:19:58;1.20;;;0.88;;
43696;SDS011;29301;47.620;19.560;2023-04-08T01:24:58;1.20;;;0.80;;
43696;SDS011;29301;47.620;19.560;2023-04-08T01:27:32;1.20;;;0.80;;
43696;SDS011;29301;47.620;19.560;2023-04-08T01:29:58;1.20;;;0.80;;
43696;SDS011;29301;47.620;19.560;2023-04-08T01:32:26;1.20;;;0.80;;
43696;SDS011;29301;47.620;19.560;2023-04-08T01:34:54;1.20;;;0.80;;
43696;SDS011;29301;47.620;19.560;2023-04-08T01:37:21;1.20;;;0.80;;
43696;SDS011;29301;47.620;19.560;2023-04-08T01:39:49;1.20;;;0.70;;
43696;SDS011;29301;47.620;19.560;2023-04-08T01:42:16;1.20;;;0.90;;
43696;SDS011;29301;47.620;19.560;2023-04-08T01:44:42;1.30;;;0.90;;
43696;SDS011;29301;47.620;19.560;2023-04-08T01:47:09;1.30;;;0.90;;
43696;SDS011;29301;47.620;19.560;2023-04-08T01:49:37;1.30;;;0.90;;
43696;SDS011;29301;47.620;19.560;2023-04-08T01:52:04;1.13;;;0.80;;
43696;SDS011;29301;47.620;19.560;2023-04-08T01:54:30;1.20;;;0.90;;
43696;SDS011;29301;47.620;19.560;2023-04-08T01:56:56;1.20;;;0.80;;
43696;SDS011;29301;47.620;19.560;2023-04-08T01:59:23;1.30;;;0.90;;
43696;SDS011;29301;47.620;19.560;2023-04-08T02:01:55;1.20;;;0.80;;
43696;SDS011;29301;47.620;19.560;2023-04-08T02:04:22;1.30;;;0.90;;
43696;SDS011;29301;47.620;19.560;2023-04-08T02:06:47;1.30;;;0.90;;
43696;SDS011;29301;47.620;19.560;2023-04-08T02:09:14;1.30;;;0.90;;
43696;SDS011;29301;47.620;19.560;2023-04-08T02:11:39;1.20;;;0.82;;
43696;SDS011;29301;47.620;19.560;2023-04-08T02:14:05;1.20;;;0.80;;
43696;SDS011;29301;47.620;19.560;2023-04-08T02:24:52;1.30;;;0.90;;
43696;SDS011;29301;47.620;19.560;2023-04-08T02:27:18;1.30;;;0.80;;
43696;SDS011;29301;47.620;19.560;2023-04-08T02:29:44;1.20;;;0.80;;
43696;SDS011;29301;47.620;19.560;2023-04-08T02:32:11;1.20;;;0.80;;
43696;SDS011;29301;47.620;19.560;2023-04-08T02:34:39;1.20;;;0.88;;
43696;SDS011;29301;47.620;19.560;2023-04-08T02:37:06;1.20;;;0.80;;
43696;SDS011;29301;47.620;19.560;2023-04-08T02:39:32;1.20;;;0.80;;
43696;SDS011;29301;47.620;19.560;2023-04-08T02:41:59;1.20;;;0.80;;
43696;SDS011;29301;47.620;19.560;2023-04-08T02:44:25;1.20;;;0.80;;
43696;SDS011;29301;47.620;19.560;2023-04-08T02:46:50;1.27;;;0.90;;
43696;SDS011;29301;47.620;19.560;2023-04-08T02:49:16;1.20;;;0.80;;
43696;SDS011;29301;47.620;19.560;2023-04-08T02:51:42;1.20;;;0.80;;
43696;SDS011;29301;47.620;19.560;2023-04-08T02:54:07;1.20;;;0.80;;
43696;SDS011;29301;47.620;19.560;2023-04-08T02:56:33;1.20;;;0.80;;
43696;SDS011;29301;47.620;19.560;2023-04-08T02:58:59;1.20;;;0.80;;
43696;SDS011;29301;47.620;19.560;2023-04-08T03:01:25;1.20;;;0.80;;
43696;SDS011;29301;47.620;19.560;2023-04-08T03:03:50;1.20;;;0.80;;
43696;SDS011;29301;47.620;19.560;2023-04-08T03:06:16;1.30;;;0.90;;
43696;SDS011;29301;47.620;19.560;2023-04-08T03:08:42;1.23;;;0.80;;
43696;SDS011;29301;47.620;19.560;2023-04-08T03:11:08;1.20;;;0.80;;
43696;SDS011;29301;47.620;19.560;2023-04-08T03:13:34;1.20;;;0.80;;
43696;SDS011;29301;47.620;19.560;2023-04-08T03:16:00;1.20;;;0.80;;
43696;SDS011;29301;47.620;19.560;2023-04-08T03:18:25;1.20;;;0.80;;
43696;SDS011;29301;47.620;19.560;2023-04-08T03:20:51;1.20;;;0.80;;
43696;SDS011;29301;47.620;19.560;2023-04-08T03:23:17;1.20;;;0.80;;
43696;SDS011;29301;47.620;19.560;2023-04-08T03:25:42;1.20;;;0.80;;
43696;SDS011;29301;47.620;19.560;2023-04-08T03:28:08;1.20;;;0.80;;
43696;SDS011;29301;47.620;19.560;2023-04-08T03:30:34;1.20;;;0.80;;
43696;SDS011;29301;47.620;19.560;2023-04-08T03:33:00;1.13;;;0.80;;
43696;SDS011;29301;47.620;19.560;2023-04-08T03:35:27;1.20;;;0.80;;
43696;SDS011;29301;47.620;19.560;2023-04-08T03:37:53;1.20;;;0.80;;
43696;SDS011;29301;47.620;19.560;2023-04-08T03:40:19;1.20;;;0.90;;
43696;SDS011;29301;47.620;19.560;2023-04-08T03:42:45;1.20;;;0.80;;
43696;SDS011;29301;47.620;19.560;2023-04-08T03:45:11;1.20;;;0.80;;
43696;SDS011;29301;47.620;19.560;2023-04-08T03:47:36;1.20;;;0.80;;
43696;SDS011;29301;47.620;19.560;2023-04-08T03:50:02;1.20;;;0.82;;
43696;SDS011;29301;47.620;19.560;2023-04-08T03:52:28;1.20;;;0.80;;
43696;SDS011;29301;47.620;19.560;2023-04-08T03:54:54;1.20;;;0.80;;
43696;SDS011;29301;47.620;19.560;2023-04-08T03:57:19;1.20;;;0.80;;
43696;SDS011;29301;47.620;19.560;2023-04-08T03:59:45;1.20;;;0.80;;
43696;SDS011;29301;47.620;19.560;2023-04-08T04:02:11;1.20;;;0.80;;
43696;SDS011;29301;47.620;19.560;2023-04-08T04:04:36;1.20;;;0.80;;
43696;SDS011;29301;47.620;19.560;2023-04-08T04:07:02;1.20;;;0.80;;
43696;SDS011;29301;47.620;19.560;2023-04-08T04:09:28;1.10;;;0.70;;
43696;SDS011;29301;47.620;19.560;2023-04-08T04:11:53;1.30;;;0.80;;
43696;SDS011;29301;47.620;19.560;2023-04-08T04:14:19;1.20;;;0.80;;
43696;SDS011;29301;47.620;19.560;2023-04-08T04:16:45;1.20;;;0.80;;
43696;SDS011;29301;47.620;19.560;2023-04-08T04:19:11;1.20;;;0.80;;
43696;SDS011;29301;47.620;19.560;2023-04-08T04:21:36;1.20;;;0.80;;
43696;SDS011;29301;47.620;19.560;2023-04-08T04:24:02;1.20;;;0.80;;
43696;SDS011;29301;47.620;19.560;2023-04-08T04:26:28;1.13;;;0.80;;
43696;SDS011;29301;47.620;19.560;2023-04-08T04:28:53;1.20;;;0.80;;
43696;SDS011;29301;47.620;19.560;2023-04-08T04:31:20;1.20;;;0.80;;
43696;SDS011;29301;47.620;19.560;2023-04-08T04:33:47;1.17;;;0.80;;
43696;SDS011;29301;47.620;19.560;2023-04-08T04:36:14;1.20;;;0.85;;
43696;SDS011;29301;47.620;19.560;2023-04-08T04:38:40;1.20;;;0.80;;
43696;SDS011;29301;47.620;19.560;2023-04-08T04:41:06;1.20;;;0.80;;
43696;SDS011;29301;47.620;19.560;2023-04-08T04:43:32;1.20;;;0.80;;
43696;SDS011;29301;47.620;19.560;2023-04-08T04:45:58;1.20;;;0.80;;
43696;SDS011;29301;47.620;19.560;2023-04-08T04:48:24;1.30;;;0.80;;
43696;SDS011;29301;47.620;19.560;2023-04-08T04:50:54;1.20;;;0.80;;
43696;SDS011;29301;47.620;19.560;2023-04-08T04:53:20;1.20;;;0.75;;
43696;SDS011;29301;47.620;19.560;2023-04-08T04:55:46;1.20;;;0.80;;
43696;SDS011;29301;47.620;19.560;2023-04-08T04:58:12;1.20;;;0.80;;
43696;SDS011;29301;47.620;19.560;2023-04-08T05:00:37;1.20;;;0.80;;
43696;SDS011;29301;47.620;19.560;2023-04-08T05:03:03;1.20;;;0.80;;
43696;SDS011;29301;47.620;19.560;2023-04-08T05:05:29;1.20;;;0.80;;
43696;SDS011;29301;47.620;19.560;2023-04-08T05:07:55;1.20;;;0.80;;
43696;SDS011;29301;47.620;19.560;2023-04-08T05:10:21;1.20;;;0.80;;
43696;SDS011;29301;47.620;19.560;2023-04-08T05:12:46;1.20;;;0.80;;
43696;SDS011;29301;47.620;19.560;2023-04-08T05:15:12;1.20;;;0.80;;
43696;SDS011;29301;47.620;19.560;2023-04-08T05:17:38;1.20;;;0.80;;
43696;SDS011;29301;47.620;19.560;2023-04-08T05:20:04;1.20;;;0.80;;
43696;SDS011;29301;47.620;19.560;2023-04-08T05:22:30;1.20;;;0.80;;
43696;SDS011;29301;47.620;19.560;2023-04-08T05:24:55;1.20;;;0.80;;
43696;SDS011;29301;47.620;19.560;2023-04-08T05:27:21;1.20;;;0.80;;
43696;SDS011;29301;47.620;19.560;2023-04-08T05:29:47;1.20;;;0.80;;
43696;SDS011;29301;47.620;19.560;2023-04-08T05:32:13;1.20;;;0.80;;
43696;SDS011;29301;47.620;19.560;2023-04-08T05:34:40;1.17;;;0.80;;
43696;SDS011;29301;47.620;19.560;2023-04-08T05:37:06;1.20;;;0.80;;
43696;SDS011;29301;47.620;19.560;2023-04-08T05:39:32;1.20;;;0.80;;
43696;SDS011;29301;47.620;19.560;2023-04-08T05:41:57;1.10;;;0.70;;
43696;SDS011;29301;47.620;19.560;2023-04-08T05:44:23;1.20;;;0.80;;
43696;SDS011;29301;47.620;19.560;2023-04-08T05:46:49;1.10;;;0.70;;
43696;SDS011;29301;47.620;19.560;2023-04-08T05:49:15;1.20;;;0.80;;
43696;SDS011;29301;47.620;19.560;2023-04-08T05:51:41;1.20;;;0.80;;
43696;SDS011;29301;47.620;19.560;2023-04-08T05:54:07;1.20;;;0.80;;
43696;SDS011;29301;47.620;19.560;2023-04-08T05:56:33;1.20;;;0.80;;
43696;SDS011;29301;47.620;19.560;2023-04-08T05:58:59;1.20;;;0.80;;
43696;SDS011;29301;47.620;19.560;2023-04-08T06:01:25;1.20;;;0.80;;
43696;SDS011;29301;47.620;19.560;2023-04-08T06:03:50;1.20;;;0.82;;
43696;SDS011;29301;47.620;19.560;2023-04-08T06:06:16;1.20;;;0.80;;
43696;SDS011;29301;47.620;19.560;2023-04-08T06:08:42;1.20;;;0.80;;
43696;SDS011;29301;47.620;19.560;2023-04-08T06:11:08;1.20;;;0.90;;
43696;SDS011;29301;47.620;19.560;2023-04-08T06:13:34;1.30;;;0.80;;
43696;SDS011;29301;47.620;19.560;2023-04-08T06:16:08;1.30;;;0.90;;
43696;SDS011;29301;47.620;19.560;2023-04-08T06:18:35;1.20;;;0.85;;
43696;SDS011;29301;47.620;19.560;2023-04-08T06:21:00;1.20;;;0.80;;
43696;SDS011;29301;47.620;19.560;2023-04-08T06:23:26;1.20;;;0.80;;
43696;SDS011;29301;47.620;19.560;2023-04-08T06:25:52;1.20;;;0.80;;
43696;SDS011;29301;47.620;19.560;2023-04-08T06:28:18;1.20;;;0.80;;
43696;SDS011;29301;47.620;19.560;2023-04-08T06:30:43;1.20;;;0.90;;
43696;SDS011;29301;47.620;19.560;2023-04-08T06:33:09;1.20;;;0.80;;
43696;SDS011;29301;47.620;19.560;2023-04-08T06:35:35;1.30;;;0.90;;
43696;SDS011;29301;47.620;19.560;2023-04-08T06:38:02;1.20;;;0.80;;
43696;SDS011;29301;47.620;19.560;2023-04-08T06:40:28;1.20;;;0.80;;
43696;SDS011;29301;47.620;19.560;2023-04-08T06:42:53;1.13;;;0.80;;
43696;SDS011;29301;47.620;19.560;2023-04-08T06:45:19;1.27;;;0.90;;
43696;SDS011;29301;47.620;19.560;2023-04-08T06:47:45;1.30;;;0.90;;
43696;SDS011;29301;47.620;19.560;2023-04-08T06:50:11;1.20;;;0.80;;
43696;SDS011;29301;47.620;19.560;2023-04-08T06:52:36;1.20;;;0.80;;
43696;SDS011;29301;47.620;19.560;2023-04-08T06:55:02;1.20;;;0.80;;
43696;SDS011;29301;47.620;19.560;2023-04-08T06:57:28;1.20;;;0.80;;
43696;SDS011;29301;47.620;19.560;2023-04-08T06:59:54;1.20;;;0.80;;
43696;SDS011;29301;47.620;19.560;2023-04-08T07:02:20;1.20;;;0.80;;
43696;SDS011;29301;47.620;19.560;2023-04-08T07:04:46;1.20;;;0.80;;
43696;SDS011;29301;47.620;19.560;2023-04-08T07:07:13;1.20;;;0.80;;
43696;SDS011;29301;47.620;19.560;2023-04-08T07:09:38;1.20;;;0.88;;
43696;SDS011;29301;47.620;19.560;2023-04-08T07:12:07;1.20;;;0.80;;
43696;SDS011;29301;47.620;19.560;2023-04-08T07:14:33;1.20;;;0.80;;
43696;SDS011;29301;47.620;19.560;2023-04-08T07:16:58;1.20;;;0.80;;
43696;SDS011;29301;47.620;19.560;2023-04-08T07:19:24;1.20;;;0.80;;
43696;SDS011;29301;47.620;19.560;2023-04-08T07:21:50;1.20;;;0.90;;
43696;SDS011;29301;47.620;19.560;2023-04-08T07:24:16;1.20;;;0.80;;
43696;SDS011;29301;47.620;19.560;2023-04-08T07:26:42;1.20;;;0.80;;
43696;SDS011;29301;47.620;19.560;2023-04-08T07:29:10;1.13;;;0.80;;
43696;SDS011;29301;47.620;19.560;2023-04-08T07:31:35;1.30;;;0.90;;
43696;SDS011;29301;47.620;19.560;2023-04-08T07:34:01;1.23;;;0.90;;
43696;SDS011;29301;47.620;19.560;2023-04-08T07:36:27;1.30;;;0.90;;
43696;SDS011;29301;47.620;19.560;2023-04-08T07:38:52;1.10;;;0.80;;
43696;SDS011;29301;47.620;19.560;2023-04-08T07:41:18;1.30;;;0.90;;
43696;SDS011;29301;47.620;19.560;2023-04-08T07:43:45;1.23;;;0.80;;
43696;SDS011;29301;47.620;19.560;2023-04-08T07:46:11;1.30;;;0.90;;
43696;SDS011;29301;47.620;19.560;2023-04-08T07:48:37;1.30;;;0.88;;
43696;SDS011;29301;47.620;19.560;2023-04-08T07:51:06;1.30;;;0.90;;
43696;SDS011;29301;47.620;19.560;2023-04-08T07:53:33;1.20;;;0.80;;
43696;SDS011;29301;47.620;19.560;2023-04-08T08:07:04;1.20;;;0.80;;
43696;SDS011;29301;47.620;19.560;2023-04-08T08:16:55;1.20;;;0.80;;
43696;SDS011;29301;47.620;19.560;2023-04-08T08:19:21;1.20;;;0.80;;
43696;SDS011;29301;47.620;19.560;2023-04-08T08:21:46;1.20;;;0.80;;
43696;SDS011;29301;47.620;19.560;2023-04-08T08:24:12;1.20;;;0.80;;
43696;SDS011;29301;47.620;19.560;2023-04-08T08:26:38;1.20;;;0.80;;
43696;SDS011;29301;47.620;19.560;2023-04-08T08:29:04;1.20;;;0.80;;
43696;SDS011;29301;47.620;19.560;2023-04-08T08:31:32;1.20;;;0.80;;
43696;SDS011;29301;47.620;19.560;2023-04-08T08:33:58;1.20;;;0.80;;
43696;SDS011;29301;47.620;19.560;2023-04-08T08:36:24;1.20;;;0.90;;
43696;SDS011;29301;47.620;19.560;2023-04-08T08:38:51;1.20;;;0.80;;
43696;SDS011;29301;47.620;19.560;2023-04-08T08:41:18;1.20;;;0.88;;
43696;SDS011;29301;47.620;19.560;2023-04-08T08:43:44;1.20;;;0.80;;
43696;SDS011;29301;47.620;19.560;2023-04-08T08:46:12;1.20;;;0.80;;
43696;SDS011;29301;47.620;19.560;2023-04-08T08:48:41;1.20;;;0.80;;
43696;SDS011;29301;47.620;19.560;2023-04-08T08:51:07;1.20;;;0.80;;
43696;SDS011;29301;47.620;19.560;2023-04-08T08:53:34;1.20;;;0.80;;
43696;SDS011;29301;47.620;19.560;2023-04-08T08:56:00;1.20;;;0.80;;
43696;SDS011;29301;47.620;19.560;2023-04-08T08:58:27;1.20;;;0.80;;
43696;SDS011;29301;47.620;19.560;2023-04-08T09:00:53;1.20;;;0.80;;
43696;SDS011;29301;47.620;19.560;2023-04-08T09:03:22;1.13;;;0.77;;
43696;SDS011;29301;47.620;19.560;2023-04-08T09:06:00;1.20;;;0.80;;
43696;SDS011;29301;47.620;19.560;2023-04-08T09:08:37;1.20;;;0.80;;
43696;SDS011;29301;47.620;19.560;2023-04-08T09:11:15;1.20;;;0.80;;
43696;SDS011;29301;47.620;19.560;2023-04-08T09:13:43;1.15;;;0.80;;
43696;SDS011;29301;47.620;19.560;2023-04-08T09:16:10;1.15;;;0.80;;
43696;SDS011;29301;47.620;19.560;2023-04-08T09:18:38;1.20;;;0.80;;
43696;SDS011;29301;47.620;19.560;2023-04-08T09:21:05;1.00;;;0.70;;
43696;SDS011;29301;47.620;19.560;2023-04-08T09:26:11;1.20;;;0.80;;
43696;SDS011;29301;47.620;19.560;2023-04-08T09:28:37;1.20;;;0.80;;
43696;SDS011;29301;47.620;19.560;2023-04-08T09:31:22;1.10;;;0.80;;
43696;SDS011;29301;47.620;19.560;2023-04-08T09:33:53;1.13;;;0.70;;
43696;SDS011;29301;47.620;19.560;2023-04-08T09:36:21;1.20;;;0.80;;
43696;SDS011;29301;47.620;19.560;2023-04-08T09:38:47;1.20;;;0.80;;
43696;SDS011;29301;47.620;19.560;2023-04-08T09:41:16;1.20;;;0.80;;
43696;SDS011;29301;47.620;19.560;2023-04-08T09:43:47;1.20;;;0.80;;
43696;SDS011;29301;47.620;19.560;2023-04-08T09:46:28;1.20;;;0.80;;
43696;SDS011;29301;47.620;19.560;2023-04-08T09:51:43;1.20;;;0.80;;
43696;SDS011;29301;47.620;19.560;2023-04-08T09:54:14;1.15;;;0.75;;
43696;SDS011;29301;47.620;19.560;2023-04-08T09:56:50;1.20;;;0.80;;
43696;SDS011;29301;47.620;19.560;2023-04-08T09:59:24;1.20;;;0.80;;
43696;SDS011;29301;47.620;19.560;2023-04-08T10:01:53;1.10;;;0.80;;
43696;SDS011;29301;47.620;19.560;2023-04-08T10:04:22;1.15;;;0.70;;
43696;SDS011;29301;47.620;19.560;2023-04-08T10:06:56;1.10;;;0.70;;
43696;SDS011;29301;47.620;19.560;2023-04-08T10:11:51;1.17;;;0.80;;
43696;SDS011;29301;47.620;19.560;2023-04-08T10:14:17;1.20;;;0.80;;
43696;SDS011;29301;47.620;19.560;2023-04-08T10:16:45;1.20;;;0.80;;
43696;SDS011;29301;47.620;19.560;2023-04-08T10:22:14;1.10;;;0.70;;
43696;SDS011;29301;47.620;19.560;2023-04-08T10:27:43;1.20;;;0.80;;
43696;SDS011;29301;47.620;19.560;2023-04-08T10:32:50;1.20;;;0.80;;
43696;SDS011;29301;47.620;19.560;2023-04-08T10:35:16;1.20;;;0.80;;
43696;SDS011;29301;47.620;19.560;2023-04-08T10:37:42;1.20;;;0.80;;
43696;SDS011;29301;47.620;19.560;2023-04-08T10:40:17;1.20;;;0.80;;
43696;SDS011;29301;47.620;19.560;2023-04-08T10:42:43;1.10;;;0.80;;
43696;SDS011;29301;47.620;19.560;2023-04-08T10:45:09;1.20;;;0.80;;
43696;SDS011;29301;47.620;19.560;2023-04-08T10:47:35;1.20;;;0.80;;
43696;SDS011;29301;47.620;19.560;2023-04-08T10:50:10;1.13;;;0.70;;
43696;SDS011;29301;47.620;19.560;2023-04-08T10:52:47;1.20;;;0.80;;
43696;SDS011;29301;47.620;19.560;2023-04-08T10:55:14;1.20;;;0.80;;
43696;SDS011;29301;47.620;19.560;2023-04-08T10:57:40;1.20;;;0.80;;
43696;SDS011;29301;47.620;19.560;2023-04-08T11:00:10;1.20;;;0.80;;
43696;SDS011;29301;47.620;19.560;2023-04-08T11:02:41;1.20;;;0.80;;
43696;SDS011;29301;47.620;19.560;2023-04-08T11:05:08;1.20;;;0.80;;
43696;SDS011;29301;47.620;19.560;2023-04-08T11:07:40;1.17;;;0.77;;
43696;SDS011;29301;47.620;19.560;2023-04-08T11:10:06;1.20;;;0.80;;
43696;SDS011;29301;47.620;19.560;2023-04-08T11:12:34;1.20;;;0.80;;
43696;SDS011;29301;47.620;19.560;2023-04-08T11:15:02;1.10;;;0.75;;
43696;SDS011;29301;47.620;19.560;2023-04-08T11:17:28;1.20;;;0.80;;
43696;SDS011;29301;47.620;19.560;2023-04-08T11:19:54;1.20;;;0.80;;
43696;SDS011;29301;47.620;19.560;2023-04-08T11:22:26;1.20;;;0.80;;
43696;SDS011;29301;47.620;19.560;2023-04-08T11:24:52;1.20;;;0.80;;
43696;SDS011;29301;47.620;19.560;2023-04-08T11:27:20;1.20;;;0.80;;
43696;SDS011;29301;47.620;19.560;2023-04-08T11:29:49;1.20;;;0.80;;
43696;SDS011;29301;47.620;19.560;2023-04-08T11:32:16;1.20;;;0.80;;
43696;SDS011;29301;47.620;19.560;2023-04-08T11:34:42;1.20;;;0.80;;
43696;SDS011;29301;47.620;19.560;2023-04-08T11:37:08;1.20;;;0.80;;
43696;SDS011;29301;47.620;19.560;2023-04-08T11:39:39;1.20;;;0.80;;
43696;SDS011;29301;47.620;19.560;2023-04-08T11:42:07;1.17;;;0.80;;
43696;SDS011;29301;47.620;19.560;2023-04-08T11:44:32;1.20;;;0.70;;
43696;SDS011;29301;47.620;19.560;2023-04-08T11:46:59;1.20;;;0.80;;
43696;SDS011;29301;47.620;19.560;2023-04-08T11:49:26;1.20;;;0.80;;
43696;SDS011;29301;47.620;19.560;2023-04-08T11:51:56;1.20;;;0.80;;
43696;SDS011;29301;47.620;19.560;2023-04-08T11:54:30;1.20;;;0.80;;
43696;SDS011;29301;47.620;19.560;2023-04-08T11:56:56;1.20;;;0.80;;
43696;SDS011;29301;47.620;19.560;2023-04-08T11:59:26;1.10;;;0.70;;
43696;SDS011;29301;47.620;19.560;2023-04-08T12:01:51;1.20;;;0.80;;
43696;SDS011;29301;47.620;19.560;2023-04-08T12:04:17;1.20;;;0.80;;
43696;SDS011;29301;47.620;19.560;2023-04-08T12:06:43;1.10;;;0.70;;
43696;SDS011;29301;47.620;19.560;2023-04-08T12:09:11;1.20;;;0.80;;
43696;SDS011;29301;47.620;19.560;2023-04-08T12:11:37;1.10;;;0.80;;
43696;SDS011;29301;47.620;19.560;2023-04-08T12:14:03;1.10;;;0.70;;
43696;SDS011;29301;47.620;19.560;2023-04-08T12:16:28;1.20;;;0.80;;
43696;SDS011;29301;47.620;19.560;2023-04-08T12:18:54;1.20;;;0.80;;
43696;SDS011;29301;47.620;19.560;2023-04-08T12:21:20;1.10;;;0.70;;
43696;SDS011;29301;47.620;19.560;2023-04-08T12:23:45;1.10;;;0.80;;
43696;SDS011;29301;47.620;19.560;2023-04-08T12:26:11;1.20;;;0.80;;
43696;SDS011;29301;47.620;19.560;2023-04-08T12:28:37;1.10;;;0.80;;
43696;SDS011;29301;47.620;19.560;2023-04-08T12:31:03;1.20;;;0.80;;
43696;SDS011;29301;47.620;19.560;2023-04-08T12:33:29;1.15;;;0.70;;
43696;SDS011;29301;47.620;19.560;2023-04-08T12:35:55;1.10;;;0.70;;
43696;SDS011;29301;47.620;19.560;2023-04-08T12:38:23;1.10;;;0.70;;
43696;SDS011;29301;47.620;19.560;2023-04-08T12:40:49;1.10;;;0.80;;
43696;SDS011;29301;47.620;19.560;2023-04-08T12:43:15;1.20;;;0.70;;
43696;SDS011;29301;47.620;19.560;2023-04-08T12:45:41;1.10;;;0.80;;
43696;SDS011;29301;47.620;19.560;2023-04-08T12:48:10;1.08;;;0.70;;
43696;SDS011;29301;47.620;19.560;2023-04-08T12:50:36;1.20;;;0.80;;
43696;SDS011;29301;47.620;19.560;2023-04-08T12:53:02;1.20;;;0.80;;
43696;SDS011;29301;47.620;19.560;2023-04-08T12:55:27;1.20;;;0.80;;
43696;SDS011;29301;47.620;19.560;2023-04-08T12:57:53;1.10;;;0.70;;
43696;SDS011;29301;47.620;19.560;2023-04-08T13:00:19;1.20;;;0.80;;
43696;SDS011;29301;47.620;19.560;2023-04-08T13:02:44;1.10;;;0.70;;
43696;SDS011;29301;47.620;19.560;2023-04-08T13:05:10;1.10;;;0.70;;
43696;SDS011;29301;47.620;19.560;2023-04-08T13:07:36;1.08;;;0.70;;
43696;SDS011;29301;47.620;19.560;2023-04-08T13:10:02;1.10;;;0.70;;
43696;SDS011;29301;47.620;19.560;2023-04-08T13:12:28;1.13;;;0.80;;
43696;SDS011;29301;47.620;19.560;2023-04-08T13:14:54;1.00;;;0.70;;
43696;SDS011;29301;47.620;19.560;2023-04-08T13:17:20;1.08;;;0.70;;
43696;SDS011;29301;47.620;19.560;2023-04-08T13:19:45;1.08;;;0.70;;
43696;SDS011;29301;47.620;19.560;2023-04-08T13:22:13;1.13;;;0.73;;
43696;SDS011;29301;47.620;19.560;2023-04-08T13:24:39;1.10;;;0.80;;
43696;SDS011;29301;47.620;19.560;2023-04-08T13:27:05;1.10;;;0.73;;
43696;SDS011;29301;47.620;19.560;2023-04-08T13:29:31;1.10;;;0.70;;
43696;SDS011;29301;47.620;19.560;2023-04-08T13:31:56;1.10;;;0.70;;
43696;SDS011;29301;47.620;19.560;2023-04-08T13:34:22;1.20;;;0.70;;
43696;SDS011;29301;47.620;19.560;2023-04-08T13:36:48;1.10;;;0.70;;
43696;SDS011;29301;47.620;19.560;2023-04-08T13:39:13;1.10;;;0.70;;
43696;SDS011;29301;47.620;19.560;2023-04-08T13:41:39;1.20;;;0.80;;
43696;SDS011;29301;47.620;19.560;2023-04-08T13:44:05;1.10;;;0.77;;
43696;SDS011;29301;47.620;19.560;2023-04-08T13:46:31;1.10;;;0.70;;
43696;SDS011;29301;47.620;19.560;2023-04-08T13:48:57;1.13;;;0.73;;
43696;SDS011;29301;47.620;19.560;2023-04-08T13:51:22;1.02;;;0.70;;
43696;SDS011;29301;47.620;19.560;2023-04-08T13:53:48;1.05;;;0.70;;
43696;SDS011;29301;47.620;19.560;2023-04-08T13:56:14;0.90;;;0.70;;
43696;SDS011;29301;47.620;19.560;2023-04-08T13:58:40;1.10;;;0.70;;
43696;SDS011;29301;47.620;19.560;2023-04-08T14:01:05;1.20;;;0.80;;
43696;SDS011;29301;47.620;19.560;2023-04-08T14:03:31;1.08;;;0.70;;
43696;SDS011;29301;47.620;19.560;2023-04-08T14:05:57;1.20;;;0.80;;
43696;SDS011;29301;47.620;19.560;2023-04-08T14:08:22;1.00;;;0.70;;
43696;SDS011;29301;47.620;19.560;2023-04-08T14:10:51;1.10;;;0.70;;
43696;SDS011;29301;47.620;19.560;2023-04-08T14:13:20;1.10;;;0.70;;
43696;SDS011;29301;47.620;19.560;2023-04-08T14:15:46;1.00;;;0.70;;
43696;SDS011;29301;47.620;19.560;2023-04-08T14:18:12;1.00;;;0.70;;
43696;SDS011;29301;47.620;19.560;2023-04-08T14:20:38;1.10;;;0.70;;
43696;SDS011;29301;47.620;19.560;2023-04-08T14:23:03;1.00;;;0.70;;
43696;SDS011;29301;47.620;19.560;2023-04-08T14:25:29;1.10;;;0.70;;
43696;SDS011;29301;47.620;19.560;2023-04-08T14:27:55;1.20;;;0.80;;
43696;SDS011;29301;47.620;19.560;2023-04-08T14:30:21;1.10;;;0.70;;
43696;SDS011;29301;47.620;19.560;2023-04-08T14:32:47;1.00;;;0.70;;
43696;SDS011;29301;47.620;19.560;2023-04-08T14:35:12;1.00;;;0.70;;
43696;SDS011;29301;47.620;19.560;2023-04-08T14:37:38;1.08;;;0.70;;
43696;SDS011;29301;47.620;19.560;2023-04-08T14:40:04;1.10;;;0.70;;
43696;SDS011;29301;47.620;19.560;2023-04-08T14:42:31;1.10;;;0.70;;
43696;SDS011;29301;47.620;19.560;2023-04-08T14:44:56;1.20;;;0.70;;
43696;SDS011;29301;47.620;19.560;2023-04-08T14:47:22;1.00;;;0.70;;
43696;SDS011;29301;47.620;19.560;2023-04-08T14:49:48;1.10;;;0.70;;
43696;SDS011;29301;47.620;19.560;2023-04-08T14:52:13;0.85;;;0.60;;
43696;SDS011;29301;47.620;19.560;2023-04-08T14:54:39;0.90;;;0.70;;
43696;SDS011;29301;47.620;19.560;2023-04-08T14:57:05;0.90;;;0.60;;
43696;SDS011;29301;47.620;19.560;2023-04-08T14:59:31;0.88;;;0.68;;
43696;SDS011;29301;47.620;19.560;2023-04-08T15:01:57;0.90;;;0.65;;
43696;SDS011;29301;47.620;19.560;2023-04-08T15:04:23;1.00;;;0.70;;
43696;SDS011;29301;47.620;19.560;2023-04-08T15:06:48;1.02;;;0.70;;
43696;SDS011;29301;47.620;19.560;2023-04-08T15:09:14;1.00;;;0.70;;
43696;SDS011;29301;47.620;19.560;2023-04-08T15:11:40;0.90;;;0.70;;
43696;SDS011;29301;47.620;19.560;2023-04-08T15:14:06;1.10;;;0.70;;
43696;SDS011;29301;47.620;19.560;2023-04-08T15:16:31;1.00;;;0.70;;
43696;SDS011;29301;47.620;19.560;2023-04-08T15:18:57;1.00;;;0.70;;
43696;SDS011;29301;47.620;19.560;2023-04-08T15:21:26;0.90;;;0.70;;
43696;SDS011;29301;47.620;19.560;2023-04-08T15:23:52;1.00;;;0.70;;